createdAt,value
2022-08-12T00:00:02.398Z,1.90
2022-08-12T00:02:48.353Z,1.70
2022-08-12T00:05:34.979Z,1.60
2022-08-12T00:08:32.029Z,1.80
2022-08-12T00:11:23.874Z,2.10
2022-08-12T00:14:09.271Z,1.58
2022-08-12T00:16:55.481Z,1.58
2022-08-12T00:19:40.843Z,1.65
2022-08-12T00:22:26.805Z,1.83
2022-08-12T00:25:17.692Z,1.67
2022-08-12T00:28:06.045Z,1.63
2022-08-12T00:30:51.402Z,1.90
2022-08-12T00:33:51.554Z,1.60
2022-08-12T00:36:43.339Z,1.70
2022-08-12T00:39:30.836Z,1.33
2022-08-12T00:42:13.370Z,1.50
2022-08-12T00:47:25.113Z,1.67
2022-08-12T00:49:55.179Z,1.70
2022-08-12T00:52:23.945Z,1.88
2022-08-12T00:54:56.846Z,1.58
2022-08-12T00:57:26.647Z,1.67
2022-08-12T00:59:57.899Z,1.92
2022-08-12T01:02:27.985Z,1.52
2022-08-12T01:05:15.999Z,1.42
2022-08-12T01:08:04.413Z,1.52
2022-08-12T01:10:52.304Z,1.30
2022-08-12T01:13:20.735Z,1.50
2022-08-12T01:15:51.466Z,1.90
2022-08-12T01:18:21.579Z,1.80
2022-08-12T01:20:57.826Z,2.08
2022-08-12T01:23:50.155Z,1.80
2022-08-12T01:26:21.313Z,1.95
2022-08-12T01:28:51.145Z,2.13
2022-08-12T01:31:20.709Z,1.67
2022-08-12T01:33:59.695Z,1.88
2022-08-12T01:36:29.029Z,1.50
2022-08-12T01:39:00.105Z,1.80
2022-08-12T01:41:31.637Z,1.55
2022-08-12T01:44:01.869Z,1.85
2022-08-12T01:46:43.450Z,1.65
2022-08-12T01:49:29.581Z,1.80
2022-08-12T01:52:21.508Z,1.30
2022-08-12T01:54:51.149Z,1.92
2022-08-12T01:57:59.734Z,1.60
2022-08-12T02:00:17.389Z,1.52
2022-08-12T02:02:49.096Z,1.92
2022-08-12T02:05:43.495Z,1.65
2022-08-12T02:08:41.507Z,1.70
2022-08-12T02:11:21.443Z,1.63
2022-08-12T02:14:26.035Z,1.88
2022-08-12T02:17:05.182Z,1.75
2022-08-12T02:19:48.727Z,1.58
2022-08-12T02:22:28.538Z,2.30
2022-08-12T02:25:02.461Z,1.92
2022-08-12T02:27:35.477Z,2.03
2022-08-12T02:30:06.048Z,2.28
2022-08-12T02:32:40.293Z,1.83
2022-08-12T02:35:11.204Z,1.40
2022-08-12T02:37:40.761Z,1.92
2022-08-12T02:40:11.882Z,2.00
2022-08-12T02:42:47.170Z,1.55
2022-08-12T02:45:20.329Z,1.77
2022-08-12T02:47:58.632Z,1.90
2022-08-12T02:50:32.458Z,1.67
2022-08-12T02:53:01.933Z,1.65
2022-08-12T02:55:36.027Z,1.70
2022-08-12T02:58:09.096Z,1.80
2022-08-12T03:00:43.270Z,1.70
2022-08-12T03:03:13.564Z,1.60
2022-08-12T03:05:48.567Z,1.90
2022-08-12T03:08:31.424Z,1.80
2022-08-12T03:11:12.195Z,1.48
2022-08-12T03:13:46.795Z,1.50
2022-08-12T03:16:15.730Z,1.92
2022-08-12T03:18:46.087Z,1.55
2022-08-12T03:21:17.009Z,1.70
2022-08-12T03:23:46.066Z,1.60
2022-08-12T03:26:14.696Z,1.92
2022-08-12T03:28:53.909Z,1.70
2022-08-12T03:31:25.913Z,1.80
2022-08-12T03:34:01.315Z,1.80
2022-08-12T03:36:31.851Z,1.55
2022-08-12T03:39:36.294Z,1.90
2022-08-12T03:42:17.434Z,1.65
2022-08-12T03:45:13.386Z,1.60
2022-08-12T03:48:06.311Z,1.67
2022-08-12T03:50:51.703Z,1.80
2022-08-12T03:53:47.117Z,1.80
2022-08-12T03:56:33.175Z,1.85
2022-08-12T03:59:20.458Z,1.98
2022-08-12T04:01:57.303Z,1.88
2022-08-12T04:04:28.505Z,1.77
2022-08-12T04:06:58.683Z,1.75
2022-08-12T04:09:26.351Z,1.80
2022-08-12T04:12:11.382Z,1.80
2022-08-12T04:14:40.368Z,2.20
2022-08-12T04:17:09.190Z,2.00
2022-08-12T04:19:38.407Z,1.75
2022-08-12T04:22:05.963Z,1.80
2022-08-12T04:24:36.063Z,2.42
2022-08-12T04:27:08.442Z,1.95
2022-08-12T04:32:24.949Z,2.03
2022-08-12T04:34:56.423Z,2.10
2022-08-12T04:37:24.149Z,1.80
2022-08-12T04:39:54.058Z,2.38
2022-08-12T04:42:21.862Z,2.38
2022-08-12T04:44:49.521Z,2.13
2022-08-12T04:47:17.946Z,2.00
2022-08-12T04:49:48.061Z,1.70
2022-08-12T04:52:16.939Z,1.90
2022-08-12T04:54:44.582Z,2.75
2022-08-12T04:57:12.343Z,2.40
2022-08-12T04:59:47.206Z,2.25
2022-08-12T05:02:20.210Z,2.28
2022-08-12T05:04:50.347Z,2.33
2022-08-12T05:07:19.325Z,2.55
2022-08-12T05:10:00.379Z,2.55
2022-08-12T05:12:36.592Z,2.58
2022-08-12T05:15:19.079Z,2.95
2022-08-12T05:17:55.499Z,2.70
2022-08-12T05:20:23.426Z,2.90
2022-08-12T05:22:56.906Z,2.30
2022-08-12T05:25:26.226Z,2.67
2022-08-12T05:27:58.255Z,2.08
2022-08-12T05:30:26.957Z,2.70
2022-08-12T05:32:55.590Z,2.38
2022-08-12T05:35:27.654Z,2.53
2022-08-12T05:38:10.598Z,2.28
2022-08-12T05:40:38.153Z,2.35
2022-08-12T05:43:06.471Z,2.58
2022-08-12T05:45:33.973Z,2.38
2022-08-12T05:48:02.646Z,2.28
2022-08-12T05:50:30.329Z,2.40
2022-08-12T05:52:59.391Z,2.50
2022-08-12T05:55:31.213Z,2.65
2022-08-12T05:57:59.598Z,2.47
2022-08-12T06:00:29.218Z,2.65
2022-08-12T06:03:01.165Z,2.63
2022-08-12T06:05:29.286Z,2.72
2022-08-12T06:07:59.384Z,2.38
2022-08-12T06:10:32.015Z,2.35
2022-08-12T06:13:00.223Z,2.80
2022-08-12T06:15:27.718Z,2.08
2022-08-12T06:17:55.493Z,2.38
2022-08-12T06:20:29.850Z,2.17
2022-08-12T06:23:02.693Z,3.03
2022-08-12T06:25:31.781Z,2.45
2022-08-12T06:28:06.864Z,2.78
2022-08-12T06:30:38.953Z,2.97
2022-08-12T06:33:22.201Z,2.78
2022-08-12T06:35:57.619Z,2.25
2022-08-12T06:38:26.678Z,2.20
2022-08-12T06:41:17.548Z,2.33
2022-08-12T06:44:05.726Z,2.22
2022-08-12T06:46:36.575Z,2.42
2022-08-12T06:49:04.725Z,2.30
2022-08-12T06:51:32.951Z,2.40
2022-08-12T06:54:01.733Z,2.47
2022-08-12T06:59:30.623Z,1.98
2022-08-12T07:01:58.744Z,1.95
2022-08-12T07:04:36.300Z,2.22
2022-08-12T07:07:06.254Z,2.30
2022-08-12T07:10:01.489Z,2.35
2022-08-12T07:12:22.666Z,2.33
2022-08-12T07:14:51.642Z,2.15
2022-08-12T07:17:19.448Z,2.00
2022-08-12T07:19:48.592Z,1.50
2022-08-12T07:22:16.768Z,1.52
2022-08-12T07:25:04.375Z,1.10
2022-08-12T07:27:40.399Z,1.30
2022-08-12T07:30:09.778Z,1.27
2022-08-12T07:32:37.318Z,1.25
2022-08-12T07:35:05.453Z,1.42
2022-08-12T07:37:35.066Z,1.27
2022-08-12T07:40:02.775Z,1.30
2022-08-12T07:42:30.909Z,1.48
2022-08-12T07:44:59.787Z,1.42
2022-08-12T07:47:27.681Z,1.35
2022-08-12T07:50:05.461Z,1.38
2022-08-12T07:52:34.456Z,1.20
2022-08-12T07:55:02.508Z,1.15
2022-08-12T07:57:32.434Z,1.30
2022-08-12T08:00:05.418Z,1.60
2022-08-12T08:02:37.160Z,1.30
2022-08-12T08:05:06.160Z,1.10
2022-08-12T08:07:33.726Z,1.17
2022-08-12T08:10:02.447Z,1.30
2022-08-12T08:12:48.400Z,1.38
2022-08-12T08:15:18.069Z,1.33
2022-08-12T08:18:01.702Z,1.30
2022-08-12T08:20:33.811Z,1.48
2022-08-12T08:25:36.404Z,1.40
2022-08-12T08:28:07.778Z,1.60
2022-08-12T08:30:39.269Z,1.60
2022-08-12T08:33:22.775Z,1.05
2022-08-12T08:35:54.374Z,1.30
2022-08-12T08:38:32.870Z,1.40
2022-08-12T08:42:16.362Z,0.93
2022-08-12T08:44:10.584Z,1.20
2022-08-12T08:46:40.039Z,1.20
2022-08-12T08:49:08.250Z,1.23
2022-08-12T08:51:36.456Z,1.23
2022-08-12T08:54:13.353Z,1.25
2022-08-12T08:56:44.281Z,0.95
2022-08-12T08:59:12.984Z,1.33
2022-08-12T09:01:44.187Z,1.25
2022-08-12T09:05:10.074Z,1.30
2022-08-12T09:07:00.736Z,1.30
2022-08-12T09:10:02.194Z,1.00
2022-08-12T09:12:54.220Z,1.20
2022-08-12T09:15:23.373Z,1.08
2022-08-12T09:18:08.934Z,1.30
2022-08-12T09:20:38.677Z,1.17
2022-08-12T09:23:08.014Z,1.20
2022-08-12T09:25:55.176Z,1.00
2022-08-12T09:28:31.210Z,1.50
2022-08-12T09:31:00.337Z,1.05
2022-08-12T09:34:26.120Z,1.30
2022-08-12T09:36:31.393Z,1.20
2022-08-12T09:40:05.969Z,0.82
2022-08-12T09:42:42.949Z,1.33
2022-08-12T09:45:19.170Z,1.17
2022-08-12T09:47:59.438Z,1.30
2022-08-12T09:50:29.136Z,1.13
2022-08-12T09:54:31.585Z,1.40
2022-08-12T09:56:07.112Z,1.20
2022-08-12T09:58:59.811Z,1.20
2022-08-12T10:01:35.547Z,1.20
2022-08-12T10:04:19.691Z,1.42
2022-08-12T10:06:54.758Z,0.75
2022-08-12T10:09:28.564Z,1.35
2022-08-12T10:12:43.039Z,1.00
2022-08-12T10:15:15.373Z,0.93
2022-08-12T10:18:06.798Z,1.08
2022-08-12T10:20:35.389Z,0.90
2022-08-12T10:23:05.657Z,1.00
2022-08-12T10:26:18.931Z,1.38
2022-08-12T10:29:01.776Z,0.98
2022-08-12T10:32:21.722Z,0.90
2022-08-12T10:34:26.150Z,0.70
2022-08-12T10:36:56.159Z,1.20
2022-08-12T10:40:00.396Z,1.55
2022-08-12T10:42:46.329Z,1.20
2022-08-12T10:45:17.219Z,1.35
2022-08-12T10:48:07.641Z,1.17
2022-08-12T10:51:01.500Z,1.00
2022-08-12T10:53:44.470Z,1.35
2022-08-12T10:56:16.010Z,1.20
2022-08-12T10:58:46.741Z,1.42
2022-08-12T11:01:49.636Z,0.93
2022-08-12T11:04:25.225Z,1.10
2022-08-12T11:07:05.760Z,1.55
2022-08-12T11:10:00.860Z,1.08
2022-08-12T11:12:56.584Z,1.33
2022-08-12T11:15:33.015Z,1.00
2022-08-12T11:18:18.672Z,1.13
2022-08-12T11:20:47.495Z,1.02
2022-08-12T11:23:25.458Z,1.17
2022-08-12T11:26:05.947Z,1.10
2022-08-12T11:28:37.086Z,1.08
2022-08-12T11:31:07.103Z,1.35
2022-08-12T11:34:06.139Z,1.25
2022-08-12T11:36:25.234Z,0.80
2022-08-12T11:38:53.814Z,0.80
2022-08-12T11:41:31.843Z,1.00
2022-08-12T11:44:07.238Z,0.80
2022-08-12T11:46:51.490Z,0.82
2022-08-12T11:49:30.836Z,0.60
2022-08-12T11:52:00.930Z,0.85
2022-08-12T11:54:29.395Z,0.85
2022-08-12T11:56:59.375Z,1.15
2022-08-12T12:02:20.820Z,1.02
2022-08-12T12:07:33.984Z,0.88
2022-08-12T12:10:12.280Z,1.10
2022-08-12T12:12:41.548Z,0.70
2022-08-12T12:15:25.362Z,0.70
2022-08-12T12:18:07.491Z,0.73
2022-08-12T12:20:40.440Z,1.00
2022-08-12T12:23:08.325Z,0.95
2022-08-12T12:26:06.246Z,0.98
2022-08-12T12:28:38.170Z,0.93
2022-08-12T12:31:15.170Z,0.90
2022-08-12T12:33:57.701Z,1.00
2022-08-12T12:36:29.978Z,0.90
2022-08-12T12:38:59.923Z,1.17
2022-08-12T12:42:40.652Z,0.90
2022-08-12T12:44:26.142Z,0.80
2022-08-12T12:47:05.171Z,0.75
2022-08-12T12:49:53.647Z,0.80
2022-08-12T12:52:21.572Z,0.77
2022-08-12T12:54:58.652Z,1.05
2022-08-12T12:57:36.081Z,1.05
2022-08-12T13:00:15.683Z,0.50
2022-08-12T13:02:54.118Z,0.52
2022-08-12T13:05:27.946Z,0.90
2022-08-12T13:08:00.713Z,0.70
2022-08-12T13:10:30.858Z,1.08
2022-08-12T13:14:09.648Z,0.63
2022-08-12T13:15:52.393Z,0.60
2022-08-12T13:18:28.529Z,0.80
2022-08-12T13:20:59.705Z,0.68
2022-08-12T13:23:37.280Z,0.73
2022-08-12T13:26:05.640Z,0.90
2022-08-12T13:28:33.264Z,0.50
2022-08-12T13:31:02.592Z,0.65
2022-08-12T13:34:28.531Z,0.63
2022-08-12T13:36:21.042Z,0.60
2022-08-12T13:38:54.386Z,0.40
2022-08-12T13:41:36.503Z,0.70
2022-08-12T13:44:06.036Z,0.63
2022-08-12T13:46:40.749Z,0.57
2022-08-12T13:49:17.447Z,0.50
2022-08-12T13:52:03.855Z,0.40
2022-08-12T13:54:32.838Z,0.50
2022-08-12T13:57:01.081Z,0.60
2022-08-12T13:59:30.348Z,0.43
2022-08-12T14:02:16.243Z,0.30
2022-08-12T14:04:56.235Z,0.55
2022-08-12T14:07:26.261Z,0.50
2022-08-12T14:10:21.031Z,0.70
2022-08-12T14:12:54.139Z,0.52
2022-08-12T14:15:37.058Z,0.38
2022-08-12T14:18:13.514Z,0.40
2022-08-12T14:20:44.112Z,0.30
2022-08-12T14:24:04.675Z,0.50
2022-08-12T14:26:06.597Z,0.40
2022-08-12T14:28:45.018Z,0.47
2022-08-12T14:31:29.616Z,0.50
2022-08-12T14:34:00.226Z,0.60
2022-08-12T14:36:34.381Z,0.28
2022-08-12T14:39:06.103Z,0.30
2022-08-12T14:41:37.144Z,0.47
2022-08-12T14:47:07.900Z,0.45
2022-08-12T14:50:33.417Z,0.20
2022-08-12T14:53:11.372Z,0.22
2022-08-12T14:58:02.408Z,0.40
2022-08-12T15:00:52.464Z,0.20
2022-08-12T15:03:52.906Z,0.30
2022-08-12T15:06:43.755Z,0.35
2022-08-12T15:09:06.361Z,0.32
2022-08-12T15:11:54.722Z,0.30
2022-08-12T15:14:25.457Z,0.35
2022-08-12T15:16:53.782Z,0.20
2022-08-12T15:20:11.592Z,0.40
2022-08-12T15:22:39.457Z,0.20
2022-08-12T15:24:58.618Z,0.30
2022-08-12T15:27:31.631Z,0.60
2022-08-12T15:30:13.954Z,0.30
2022-08-12T15:32:43.758Z,0.50
2022-08-12T15:35:16.729Z,0.57
2022-08-12T15:38:18.767Z,0.47
2022-08-12T15:40:34.925Z,0.20
2022-08-12T15:43:04.979Z,0.50
2022-08-12T15:45:39.141Z,0.40
2022-08-12T15:48:20.299Z,0.30
2022-08-12T15:50:52.893Z,0.30
2022-08-12T15:53:43.469Z,0.20
2022-08-12T15:56:13.571Z,1.58
2022-08-12T15:58:42.161Z,0.50
2022-08-12T16:01:11.491Z,0.50
2022-08-12T16:03:45.511Z,0.68
2022-08-12T16:06:22.152Z,0.40
2022-08-12T16:09:02.559Z,0.30
2022-08-12T16:11:41.318Z,0.30
2022-08-12T16:14:11.282Z,0.50
2022-08-12T16:16:38.886Z,0.32
2022-08-12T16:19:09.604Z,0.32
2022-08-12T16:21:58.664Z,0.57
2022-08-12T16:24:27.004Z,0.28
2022-08-12T16:26:56.042Z,0.30
2022-08-12T16:29:52.460Z,0.30
2022-08-12T16:32:24.541Z,0.55
2022-08-12T16:34:59.115Z,0.50
2022-08-12T16:37:32.685Z,0.38
2022-08-12T16:40:18.878Z,0.50
2022-08-12T16:42:53.789Z,0.40
2022-08-12T16:45:32.216Z,0.20
2022-08-12T16:48:35.017Z,0.50
2022-08-12T16:51:05.862Z,0.40
2022-08-12T16:53:43.827Z,0.50
2022-08-12T16:56:15.812Z,0.50
2022-08-12T16:58:47.950Z,0.40
2022-08-12T17:01:16.411Z,0.50
2022-08-12T17:03:52.334Z,0.32
2022-08-12T17:06:27.354Z,0.40
2022-08-12T17:09:02.345Z,0.30
2022-08-12T17:11:30.915Z,0.43
2022-08-12T17:14:01.566Z,0.30
2022-08-12T17:16:30.310Z,0.50
2022-08-12T17:18:59.623Z,0.50
2022-08-12T17:21:41.327Z,0.47
2022-08-12T17:24:30.259Z,0.70
2022-08-12T17:26:59.762Z,0.70
2022-08-12T17:30:00.305Z,0.60
2022-08-12T17:32:17.129Z,0.57
2022-08-12T17:35:11.554Z,0.52
2022-08-12T17:37:40.503Z,0.85
2022-08-12T17:40:16.384Z,0.57
2022-08-12T17:42:56.360Z,0.63
2022-08-12T17:45:27.044Z,0.47
2022-08-12T17:48:01.312Z,0.40
2022-08-12T17:50:34.103Z,0.60
2022-08-12T17:53:02.780Z,0.50
2022-08-12T17:55:44.713Z,0.63
2022-08-12T17:58:17.285Z,0.63
2022-08-12T18:00:47.390Z,0.90
2022-08-12T18:04:04.867Z,0.70
2022-08-12T18:06:13.768Z,0.70
2022-08-12T18:08:43.353Z,0.50
2022-08-12T18:12:06.224Z,0.70
2022-08-12T18:14:28.071Z,0.60
2022-08-12T18:17:00.811Z,0.60
2022-08-12T18:20:03.510Z,0.73
2022-08-12T18:22:17.488Z,0.70
2022-08-12T18:24:47.346Z,0.75
2022-08-12T18:27:30.036Z,0.80
2022-08-12T18:29:58.628Z,0.93
2022-08-12T18:32:58.957Z,0.73
2022-08-12T18:35:29.954Z,0.63
2022-08-12T18:38:11.307Z,0.57
2022-08-12T18:41:04.660Z,0.50
2022-08-12T18:43:57.349Z,0.50
2022-08-12T18:46:29.914Z,0.50
2022-08-12T18:49:17.242Z,0.70
2022-08-12T18:51:55.189Z,0.60
2022-08-12T18:54:30.836Z,0.70
2022-08-12T18:57:01.483Z,0.70
2022-08-12T19:00:01.421Z,0.50
2022-08-12T19:02:22.448Z,0.52
2022-08-12T19:04:53.871Z,0.88
2022-08-12T19:07:23.406Z,0.50
2022-08-12T19:09:58.329Z,0.60
2022-08-12T19:12:56.959Z,0.60
2022-08-12T19:15:26.461Z,0.70
2022-08-12T19:18:00.760Z,0.70
2022-08-12T19:20:32.838Z,0.88
2022-08-12T19:23:07.329Z,0.70
2022-08-12T19:26:01.355Z,0.60
2022-08-12T19:28:29.847Z,0.80
2022-08-12T19:31:56.632Z,0.70
2022-08-12T19:34:56.007Z,0.60
2022-08-12T19:37:17.070Z,0.98
2022-08-12T19:40:10.092Z,0.73
2022-08-12T19:42:32.948Z,0.82
2022-08-12T19:45:04.800Z,0.88
2022-08-12T19:47:39.207Z,0.70
2022-08-12T19:50:11.188Z,0.75
2022-08-12T19:52:41.709Z,0.80
2022-08-12T19:55:11.540Z,1.00
2022-08-12T19:58:01.564Z,0.85
2022-08-12T20:00:30.422Z,0.73
2022-08-12T20:03:00.593Z,0.88
2022-08-12T20:06:07.794Z,0.70
2022-08-12T20:08:29.317Z,0.70
2022-08-12T20:12:13.984Z,0.88
2022-08-12T20:14:00.438Z,1.00
2022-08-12T20:16:52.199Z,0.80
2022-08-12T20:19:23.904Z,0.90
2022-08-12T20:22:14.262Z,0.70
2022-08-12T20:24:45.364Z,0.98
2022-08-12T20:27:29.671Z,0.80
2022-08-12T20:30:03.663Z,0.90
2022-08-12T20:32:47.453Z,0.82
2022-08-12T20:35:18.369Z,0.90
2022-08-12T20:38:06.554Z,0.93
2022-08-12T20:40:38.337Z,0.70
2022-08-12T20:43:06.689Z,0.95
2022-08-12T20:45:51.269Z,0.88
2022-08-12T20:48:24.238Z,0.80
2022-08-12T20:50:53.723Z,1.13
2022-08-12T20:53:27.770Z,0.88
2022-08-12T20:56:22.015Z,0.82
2022-08-12T20:58:59.897Z,0.60
2022-08-12T21:01:29.173Z,0.75
2022-08-12T21:04:32.803Z,0.88
2022-08-12T21:07:04.502Z,0.60
2022-08-12T21:09:41.005Z,0.65
2022-08-12T21:12:27.741Z,0.82
2022-08-12T21:15:17.434Z,0.75
2022-08-12T21:18:09.224Z,0.82
2022-08-12T21:20:48.157Z,0.98
2022-08-12T21:23:15.644Z,0.77
2022-08-12T21:25:49.178Z,0.70
2022-08-12T21:32:34.684Z,0.90
2022-08-12T21:34:06.952Z,1.00
2022-08-12T21:36:37.443Z,1.08
2022-08-12T21:39:18.126Z,0.90
2022-08-12T21:41:50.995Z,0.85
2022-08-12T21:44:24.615Z,0.80
2022-08-12T21:47:21.053Z,0.93
2022-08-12T21:50:02.452Z,1.20
2022-08-12T21:52:34.759Z,0.85
2022-08-12T21:55:19.226Z,0.80
2022-08-12T21:57:53.241Z,1.10
2022-08-12T22:00:31.751Z,1.00
2022-08-12T22:04:02.161Z,0.80
2022-08-12T22:06:31.807Z,0.60
2022-08-12T22:09:15.309Z,0.73
2022-08-12T22:11:56.177Z,1.00
2022-08-12T22:14:27.207Z,0.73
2022-08-12T22:16:57.740Z,0.63
2022-08-12T22:19:26.945Z,0.90
2022-08-12T22:21:56.353Z,1.08
2022-08-12T22:24:30.008Z,0.95
2022-08-12T22:26:59.302Z,1.00
2022-08-12T22:29:53.928Z,0.80
2022-08-12T22:32:22.772Z,1.00
2022-08-12T22:35:23.223Z,0.90
2022-08-12T22:37:56.519Z,1.02
2022-08-12T22:40:24.561Z,0.90
2022-08-12T22:43:15.802Z,0.95
2022-08-12T22:46:01.181Z,0.50
2022-08-12T22:48:30.597Z,0.82
2022-08-12T22:50:59.245Z,0.88
2022-08-12T22:53:36.254Z,1.10
2022-08-12T22:56:07.176Z,0.88
2022-08-12T22:58:36.664Z,0.80
2022-08-12T23:01:10.699Z,1.30
2022-08-12T23:03:48.962Z,0.90
2022-08-12T23:06:19.904Z,0.80
2022-08-12T23:08:48.240Z,1.00
2022-08-12T23:11:17.174Z,1.15
2022-08-12T23:13:54.787Z,0.90
2022-08-12T23:16:29.173Z,0.93
2022-08-12T23:19:09.854Z,0.98
2022-08-12T23:22:05.287Z,0.90
2022-08-12T23:24:38.527Z,1.02
2022-08-12T23:27:23.795Z,1.17
2022-08-12T23:30:18.401Z,0.90
2022-08-12T23:32:54.445Z,0.80
2022-08-12T23:35:58.789Z,0.98
2022-08-12T23:38:18.998Z,1.40
2022-08-12T23:40:59.673Z,1.55
2022-08-12T23:43:39.300Z,1.30
2022-08-12T23:46:09.495Z,1.10
2022-08-12T23:48:37.598Z,1.10
2022-08-12T23:51:21.480Z,1.42
2022-08-12T23:53:51.181Z,1.27
2022-08-12T23:56:18.797Z,1.17
2022-08-12T23:58:52.583Z,1.27
